Langley, SC (29834)

9:38 AM EST on February 09, 2016 (GMT -0500)
Pine Log Rd & Storm Branch Rd | | Change Station
CLOSE
Current Station
Personal Weather Station
Location: Beech Island, SC
Elevation: 472 ft
Nearby Weather Stations
Active Advisory: Lake Wind Advisory

Elev 472 ft 33.46 °N, 81.85 °W | Updated 9 minutes ago

Overcast
Overcast
42.1 °F
Feels Like 38 °F
N
6.3
Wind Variable Wind from SW

Today
High -- | Low -- °F
--% Chance of Precip.
Yesterday
High -- | Low -- °F
Precip. -- in
Pressure 29.85 in
Visibility 10.0 miles
Clouds Few 5500 ft
Overcast 10000 ft
Windchill 38 °F
Dew Point 28 °F
Humidity 56%
Rainfall 0.00 in
Snow Depth Not available.
7:17 AM 6:06 PM
New Moon, 1% visible
METAR KDNL 091353Z AUTO 28008G19KT 240V300 10SM FEW055 OVC100 04/M06 A2984 RMK AO2 SLP106 T00391061
Pressure 29.85 in
Visibility 10.0 miles
Clouds Few 5500 ft
Overcast 10000 ft
Windchill 38 °F
Dew Point 28 °F
Humidity 56%
Rainfall 0.00 in
Snow Depth Not available.
7:17 AM 6:06 PM
New Moon, 1% visible
METAR KDNL 091353Z AUTO 28008G19KT 240V300 10SM FEW055 OVC100 04/M06 A2984 RMK AO2 SLP106 T00391061

10-Day Weather Forecast

Almanac

Astronomy

Feb. 09, 2016 Rise Set
Actual Time
Civil Twilight
Nautical Twilight
Astronomical Twilight
Moon
Length of Visible Light
Length of Day
Tomorrow will be .
, % of the Moon is Illuminated

Today's Extremes

State Highs State Lows

Community

WunderPhotos

Upload Photos

1,891,606 photos uploaded!

WunderBlog® & News

Nearby

Air Quality

  Air Quality AQ Index Pollutant
Not available.

Snow Depth

Station Depth Elevation

Earthquake Activity

City Distance Mag. Time & Date
Minimum magnitude displayed is 2.5.

Coastal Water Temperatures

Place Temperature

Stations

Nearby Weather Stations

Station Location Temp. Windchill Dew Point Humidity Wind Precip. Elev Updated Type
                   

Watches & Warnings

Lake Wind Advisory
Issued: 2:11 AM EST Feb. 9, 2016 – National Weather Service

... Lake Wind Advisory in effect until 11 PM EST Wednesday...

The National Weather Service in Columbia has issued a lake Wind
Advisory... which is in effect until 11 PM EST Wednesday.

* Timing... today through Wednesday evening.

* Winds... west 20 to 30 knots.

* Impacts... strong winds and rough chop will create hazardous
conditions for small craft and personal watercraft.

Precautionary/preparedness actions...

A lake Wind Advisory indicates that winds will cause rough chop
on area lakes. Small boats will be especially prone to capsizing.